Time;durP1;ratioP1;P1;durP2;ratioP2;P2;SDS_P1;SDS_P2;PMS_P1;PMS_P2;Temp;Humidity;BMP_temperature;BMP_pressure;BME280_temperature;BME280_humidity;BME280_pressure;Samples;Min_cycle;Max_cycle;Signal;HPM_P1;HPM_P2
2021/01/05 00:00:49;;;;;;;19.30;10.15;;;;;;;1.68;100.00;101554.47;4944425;29;20039;-78
2021/01/05 00:03:15;;;;;;;20.80;10.65;;;;;;;1.68;100.00;101557.94;4957517;28;20031;-78
2021/01/05 00:05:40;;;;;;;21.98;10.50;;;;;;;1.70;100.00;101556.06;4972310;28;20038;-78
2021/01/05 00:08:06;;;;;;;20.23;10.00;;;;;;;1.68;100.00;101555.31;4957417;28;20031;-78
2021/01/05 00:10:31;;;;;;;20.05;10.68;;;;;;;1.72;100.00;101548.88;4957022;28;20548;-78
2021/01/05 00:12:57;;;;;;;22.27;10.45;;;;;;;1.70;100.00;101557.84;4956598;28;20035;-78
2021/01/05 00:15:23;;;;;;;18.55;9.88;;;;;;;1.69;100.00;101554.34;4957529;28;20089;-77
2021/01/05 00:17:48;;;;;;;20.38;10.20;;;;;;;1.68;100.00;101554.47;4972377;28;20039;-78
2021/01/05 00:20:20;;;;;;;18.70;9.70;;;;;;;1.68;100.00;101560.59;4957366;28;20039;-77
2021/01/05 00:22:46;;;;;;;22.08;10.05;;;;;;;1.69;100.00;101562.28;4972774;28;20564;-78
2021/01/05 00:25:14;;;;;;;20.27;10.23;;;;;;;1.73;100.00;101562.97;4956827;28;20023;-78
2021/01/05 00:27:40;;;;;;;19.27;10.18;;;;;;;1.73;100.00;101552.38;4957988;28;20448;-78
2021/01/05 00:30:13;;;;;;;17.27;9.38;;;;;;;1.72;100.00;101566.56;4957439;29;20027;-77
2021/01/05 00:32:42;;;;;;;21.20;10.35;;;;;;;1.72;100.00;101553.34;4958188;29;20035;-78
2021/01/05 00:35:10;;;;;;;24.35;10.85;;;;;;;1.68;100.00;101557.09;4957335;28;20452;-78
2021/01/05 00:37:36;;;;;;;20.48;9.48;;;;;;;1.72;100.00;101567.41;4957168;28;20023;-78
2021/01/05 00:40:01;;;;;;;20.27;10.32;;;;;;;1.72;100.00;101562.13;4949685;28;20040;-77
2021/01/05 00:42:27;;;;;;;18.98;9.55;;;;;;;1.71;100.00;101560.44;4956810;29;20035;-78
2021/01/05 00:44:52;;;;;;;22.25;11.20;;;;;;;1.70;100.00;101569.28;4957344;28;20043;-78
2021/01/05 00:47:18;;;;;;;17.60;8.80;;;;;;;1.70;100.00;101573.72;4956673;28;20054;-78
2021/01/05 00:49:43;;;;;;;19.42;10.27;;;;;;;1.71;100.00;101576.28;4957006;28;20031;-78
2021/01/05 00:52:09;;;;;;;22.02;10.70;;;;;;;1.71;100.00;101578.94;4971753;28;20031;-77
2021/01/05 00:54:34;;;;;;;21.25;11.00;;;;;;;1.71;100.00;101578.09;4956881;28;20519;-77
2021/01/05 00:57:05;;;;;;;21.23;10.43;;;;;;;1.72;100.00;101566.56;4956418;28;20035;-78
2021/01/05 00:59:30;;;;;;;20.92;10.30;;;;;;;1.72;100.00;101574.50;4956846;29;20035;-78
2021/01/05 01:01:56;;;;;;;23.42;9.63;;;;;;;1.73;100.00;101577.03;4956917;28;20085;-78
2021/01/05 01:04:22;;;;;;;20.65;10.30;;;;;;;1.72;100.00;101574.50;4955921;29;20409;-77
2021/01/05 01:06:47;;;;;;;22.85;10.50;;;;;;;1.71;100.00;101571.00;4955963;28;20070;-78
2021/01/05 01:09:13;;;;;;;20.73;10.93;;;;;;;1.69;100.00;101570.22;4956430;29;20094;-78
2021/01/05 01:11:38;;;;;;;19.67;10.48;;;;;;;1.68;100.00;101572.97;4956388;28;20564;-77
2021/01/05 01:14:05;;;;;;;21.60;10.85;;;;;;;1.68;100.00;101567.69;4956892;28;20035;-78
2021/01/05 01:16:30;;;;;;;22.80;11.30;;;;;;;1.67;100.00;101579.22;4955761;28;20031;-78
2021/01/05 01:18:56;;;;;;;23.40;11.73;;;;;;;1.70;100.00;101573.72;4956626;28;20401;-78
2021/01/05 01:21:22;;;;;;;19.15;10.27;;;;;;;1.71;100.00;101576.28;4955890;29;20745;-78
2021/01/05 01:23:47;;;;;;;22.00;10.68;;;;;;;1.71;100.00;101575.44;4955747;28;20042;-78
2021/01/05 01:26:13;;;;;;;23.77;10.82;;;;;;;1.74;100.00;101573.44;4956210;28;20113;-78
2021/01/05 01:28:40;;;;;;;22.60;10.60;;;;;;;1.74;100.00;101580.53;4956612;28;20119;-77
2021/01/05 01:31:06;;;;;;;21.00;10.57;;;;;;;1.72;100.00;101580.63;4956482;28;20063;-78
2021/01/05 01:33:31;;;;;;;22.85;10.82;;;;;;;1.67;100.00;101573.94;4955865;28;20058;-78
2021/01/05 01:35:57;;;;;;;21.65;11.23;;;;;;;1.70;100.00;101585.16;4957407;28;20511;-78
2021/01/05 01:38:22;;;;;;;21.02;10.93;;;;;;;1.68;100.00;101588.84;4959090;28;20039;-78
2021/01/05 01:40:48;;;;;;;23.83;12.13;;;;;;;1.70;100.00;101585.16;4956606;28;20043;-78
2021/01/05 01:43:13;;;;;;;21.23;11.30;;;;;;;1.74;100.00;101591.13;4956718;28;20463;-77
2021/01/05 01:45:39;;;;;;;22.20;11.05;;;;;;;1.72;100.00;101593.00;4956936;28;20039;-78
2021/01/05 01:48:08;;;;;;;21.42;10.43;;;;;;;1.71;100.00;101600.09;4956876;29;20111;-78
2021/01/05 01:50:36;;;;;;;23.88;11.80;;;;;;;1.77;100.00;101596.25;4971546;28;20038;-78
2021/01/05 01:53:17;;;;;;;24.20;11.10;;;;;;;1.75;100.00;101601.59;4956785;28;20466;-78
2021/01/05 01:56:10;;;;;;;24.52;11.80;;;;;;;1.77;100.00;101596.25;4971925;28;20070;-78
2021/01/05 01:58:48;;;;;;;26.90;11.88;;;;;;;1.74;100.00;101594.63;4956532;28;20520;-78
2021/01/05 02:01:25;;;;;;;25.17;11.15;;;;;;;1.74;100.00;101596.41;4970429;28;20168;-78
2021/01/05 02:04:13;;;;;;;24.20;11.25;;;;;;;1.70;100.00;101590.44;4957293;29;20082;-78
2021/01/05 02:07:36;;;;;;;21.73;10.07;;;;;;;1.69;100.00;101598.47;4956277;29;20576;-78
2021/01/05 02:10:18;;;;;;;22.30;10.70;;;;;;;1.69;100.00;101596.69;4957282;28;20508;-78
2021/01/05 02:12:53;;;;;;;21.05;10.85;;;;;;;1.69;100.00;101586.09;4971719;28;20104;-78
2021/01/05 02:15:31;;;;;;;;;;;;;;;1.68;100.00;101587.03;4957667;28;20044;-78
2021/01/05 02:18:26;;;;;;;27.13;12.15;;;;;;;1.67;100.00;101593.28;4956746;28;19976;-78
2021/01/05 02:21:00;;;;;;;23.33;11.18;;;;;;;1.63;100.00;101583.81;4949171;29;20044;-78
2021/01/05 02:23:45;;;;;;;24.52;10.82;;;;;;;1.67;100.00;101584.50;4957119;29;20433;-78
2021/01/05 02:26:22;;;;;;;24.13;11.50;;;;;;;1.66;100.00;101583.66;4956618;29;20102;-78
2021/01/05 02:28:54;;;;;;;24.05;11.57;;;;;;;1.68;100.00;101575.63;4957089;28;20031;-78
2021/01/05 02:31:41;;;;;;;26.77;11.75;;;;;;;1.66;100.00;101572.22;4956860;28;20027;-78
2021/01/05 02:34:21;;;;;;;24.35;10.88;;;;;;;1.66;100.00;101578.38;4957383;28;20133;-78
2021/01/05 02:36:59;;;;;;;25.40;12.75;;;;;;;1.66;100.00;101569.59;4959925;28;20027;-78
2021/01/05 02:39:50;;;;;;;21.48;11.38;;;;;;;1.68;100.00;101575.63;4954996;28;20035;-77
2021/01/05 02:42:36;;;;;;;27.70;12.07;;;;;;;1.64;100.00;101574.09;4975234;28;20039;-78
2021/01/05 02:45:08;;;;;;;25.23;11.70;;;;;;;1.64;100.00;101577.59;4960209;29;20035;-78
2021/01/05 02:47:50;;;;;;;25.52;11.90;;;;;;;1.65;100.00;101557.28;4960547;28;20031;-77
2021/01/05 02:50:38;;;;;;;28.05;12.98;;;;;;;1.68;100.00;101563.25;4960963;28;20035;-77
2021/01/05 02:53:39;;;;;;;29.83;12.07;;;;;;;1.62;100.00;101571.56;4960951;28;20592;-78
2021/01/05 02:56:28;;;;;;;30.65;13.30;;;;;;;1.64;100.00;101566.16;4960921;28;20038;-78
2021/01/05 02:59:19;;;;;;;24.50;11.23;;;;;;;1.63;100.00;101565.31;4959210;28;20058;-78
2021/01/05 03:02:30;;;;;;;26.17;11.35;;;;;;;1.62;100.00;101570.69;4960689;28;20027;-78
2021/01/05 03:04:56;;;;;;;26.30;11.35;;;;;;;1.67;100.00;101558.91;4960063;28;20031;-78
2021/01/05 03:07:26;;;;;;;25.73;12.10;;;;;;;1.66;100.00;101564.28;4960452;28;20279;-78
2021/01/05 03:10:08;;;;;;;25.83;11.85;;;;;;;1.67;100.00;101564.19;4975465;28;20446;-78
2021/01/05 03:12:54;;;;;;;27.20;12.30;;;;;;;1.67;100.00;101573.94;4960636;28;20042;-78
2021/01/05 03:15:40;;;;;;;24.98;11.35;;;;;;;1.69;100.00;101564.94;4959226;28;20070;-78
2021/01/05 03:18:19;;;;;;;25.90;11.45;;;;;;;1.69;100.00;101569.38;4954268;29;20094;-78
2021/01/05 03:20:52;;;;;;;28.23;12.40;;;;;;;1.69;100.00;101578.16;4955668;28;20067;-78
2021/01/05 03:23:19;;;;;;;26.95;12.50;;;;;;;1.70;100.00;101576.38;4955598;29;20043;-78
2021/01/05 03:25:48;;;;;;;27.75;13.63;;;;;;;1.72;100.00;101577.16;4955334;28;20031;-78
2021/01/05 03:28:24;;;;;;;28.85;13.15;;;;;;;1.70;100.00;101566.63;4953736;29;20042;-78
2021/01/05 03:30:58;;;;;;;23.73;11.95;;;;;;;1.69;100.00;101567.59;4955669;28;20370;-78
2021/01/05 03:33:23;;;;;;;30.33;12.82;;;;;;;1.65;100.00;101568.69;4958619;28;20039;-78
2021/01/05 03:35:49;;;;;;;28.38;12.30;;;;;;;1.69;100.00;101577.31;4959090;28;20517;-78
2021/01/05 03:38:14;;;;;;;26.08;12.35;;;;;;;1.70;100.00;101579.00;4957944;28;20830;-78
2021/01/05 03:40:40;;;;;;;28.20;13.55;;;;;;;1.70;100.00;101571.06;4958146;29;20070;-78
2021/01/05 03:43:06;;;;;;;25.15;12.05;;;;;;;1.68;100.00;101567.69;4957347;28;20147;-78
2021/01/05 03:45:32;;;;;;;27.75;12.05;;;;;;;1.70;100.00;101558.69;4956952;28;20055;-77
2021/01/05 03:47:58;;;;;;;32.65;14.15;;;;;;;1.67;100.00;101558.91;4957399;28;20039;-78
2021/01/05 03:50:25;;;;;;;25.58;12.07;;;;;;;1.68;100.00;101559.75;4958442;28;20107;-78
2021/01/05 03:52:50;;;;;;;29.00;13.13;;;;;;;1.69;100.00;101556.16;4958386;28;20050;-78
2021/01/05 03:55:17;;;;;;;26.65;12.70;;;;;;;1.67;100.00;101556.25;4958032;28;20035;-78
2021/01/05 03:57:43;;;;;;;25.33;12.43;;;;;;;1.67;100.00;101558.91;4958174;28;20027;-78
2021/01/05 04:00:14;;;;;;;30.60;14.18;;;;;;;1.69;100.00;101550.88;4958516;28;20027;-78
2021/01/05 04:02:40;;;;;;;28.33;13.57;;;;;;;1.68;100.00;101563.25;4957764;28;20035;-78
2021/01/05 04:05:08;;;;;;;29.63;12.52;;;;;;;1.69;100.00;101556.16;4956595;28;20048;-77
2021/01/05 04:07:34;;;;;;;30.77;13.75;;;;;;;1.69;100.00;101556.16;4958041;29;20036;-78
2021/01/05 04:09:59;;;;;;;28.25;12.65;;;;;;;1.70;100.00;101552.56;4958032;28;20028;-78
2021/01/05 04:12:24;;;;;;;29.75;13.75;;;;;;;1.69;100.00;101558.78;4958659;28;20035;-78
2021/01/05 04:14:50;;;;;;;31.52;13.65;;;;;;;1.67;100.00;101555.41;4957868;28;20469;-77
2021/01/05 04:17:15;;;;;;;32.45;14.00;;;;;;;1.68;100.00;101557.09;4957901;28;20078;-78
2021/01/05 04:19:41;;;;;;;27.77;13.38;;;;;;;1.68;100.00;101557.09;4955547;29;20059;-78
2021/01/05 04:22:06;;;;;;;30.65;14.10;;;;;;;1.70;100.00;101558.69;4947801;29;20621;-78
2021/01/05 04:24:32;;;;;;;28.77;13.55;;;;;;;1.69;100.00;101553.50;4957550;28;20061;-78
2021/01/05 04:26:57;;;;;;;31.75;13.73;;;;;;;1.66;100.00;101562.50;4957915;29;20127;-78
2021/01/05 04:29:23;;;;;;;30.90;14.30;;;;;;;1.65;100.00;101560.75;4957555;28;20035;-78
2021/01/05 04:31:48;;;;;;;30.50;13.63;;;;;;;1.69;100.00;101559.66;4958205;28;20503;-78
2021/01/05 04:34:17;;;;;;;30.52;13.63;;;;;;;1.73;100.00;101561.16;4957586;28;20050;-78
2021/01/05 04:36:42;;;;;;;30.80;13.95;;;;;;;1.74;100.00;101562.88;4957266;28;20031;-78
2021/01/05 04:39:09;;;;;;;30.00;14.18;;;;;;;1.74;100.00;101554.09;4957737;28;20473;-78
2021/01/05 04:41:49;;;;;;;31.40;13.02;;;;;;;1.70;100.00;101558.69;4957806;28;20050;-78
2021/01/05 04:44:17;;;;;;;31.88;13.82;;;;;;;1.71;100.00;101563.06;4957457;28;20077;-78
2021/01/05 04:46:51;;;;;;;30.75;13.50;;;;;;;1.70;100.00;101561.34;4957706;28;20386;-78
2021/01/05 04:49:24;;;;;;;35.05;14.63;;;;;;;1.73;100.00;101568.25;4957343;28;20035;-78
2021/01/05 04:52:03;;;;;;;32.08;13.70;;;;;;;1.71;100.00;101571.00;4958281;28;20039;-78
2021/01/05 04:54:35;;;;;;;29.77;13.57;;;;;;;1.71;100.00;101575.44;4945337;29;20397;-79
2021/01/05 04:57:06;;;;;;;29.10;13.20;;;;;;;1.74;100.00;101577.88;4956648;28;20378;-79
2021/01/05 04:59:46;;;;;;;34.85;13.13;;;;;;;1.74;100.00;101569.97;4956827;28;20461;-81
2021/01/05 05:02:15;;;;;;;29.33;12.65;;;;;;;1.68;100.00;101568.53;4955870;29;20070;-79
2021/01/05 05:04:50;;;;;;;26.77;12.13;;;;;;;1.68;100.00;101570.31;4956866;28;20038;-78
2021/01/05 05:07:28;;;;;;;26.70;12.38;;;;;;;1.71;100.00;101581.59;4955993;28;20027;-78
2021/01/05 05:10:05;;;;;;;28.40;12.90;;;;;;;1.67;100.00;101573.94;4956085;28;20034;-78
2021/01/05 05:12:46;;;;;;;31.52;12.52;;;;;;;1.67;100.00;101580.06;4957375;28;20033;-78
2021/01/05 05:15:29;;;;;;;28.52;12.80;;;;;;;1.67;100.00;101572.13;4956241;28;20031;-79
2021/01/05 05:18:08;;;;;;;27.98;12.40;;;;;;;1.72;100.00;101577.16;4972484;28;20031;-79
2021/01/05 05:21:02;;;;;;;29.23;12.73;;;;;;;1.66;100.00;101572.22;4954562;29;20450;-80
2021/01/05 05:23:52;;;;;;;25.77;12.43;;;;;;;1.69;100.00;101572.03;4957656;28;20082;-77
2021/01/05 05:26:25;;;;;;;27.75;12.80;;;;;;;1.71;100.00;101578.09;4956910;28;20037;-78
2021/01/05 05:28:56;;;;;;;31.52;13.57;;;;;;;1.72;100.00;101578.00;4956863;29;20490;-78
2021/01/05 05:31:24;;;;;;;26.85;12.38;;;;;;;1.73;100.00;101576.19;4957517;28;20117;-78
2021/01/05 05:33:54;;;;;;;27.10;12.63;;;;;;;1.72;100.00;101583.28;4956859;28;20039;-79
2021/01/05 05:36:35;;;;;;;28.60;12.88;;;;;;;1.75;100.00;101582.22;4956903;28;20024;-79
2021/01/05 05:39:22;;;;;;;28.98;12.68;;;;;;;1.69;100.00;101583.44;4957132;28;20027;-78
2021/01/05 05:42:01;;;;;;;28.92;13.10;;;;;;;1.72;100.00;101587.72;4957579;29;20039;-79
2021/01/05 05:44:47;;;;;;;29.70;13.52;;;;;;;1.78;100.00;101595.28;4957135;28;20083;-79
2021/01/05 05:47:21;;;;;;;28.38;12.82;;;;;;;1.74;100.00;101601.69;4957494;28;20054;-78
2021/01/05 05:49:55;;;;;;;29.90;13.27;;;;;;;1.78;100.00;101592.66;4957170;28;20521;-79
2021/01/05 05:52:31;;;;;;;28.23;12.40;;;;;;;1.78;100.00;101593.50;4955964;29;20110;-78
2021/01/05 05:54:58;;;;;;;25.63;11.93;;;;;;;1.78;100.00;101597.94;4956687;29;20061;-78
2021/01/05 05:57:42;;;;;;;26.48;11.63;;;;;;;1.79;100.00;101597.00;4956975;28;20059;-78
2021/01/05 06:00:21;;;;;;;27.60;12.15;;;;;;;1.80;100.00;101596.03;4956727;28;20041;-78
2021/01/05 06:02:47;;;;;;;28.00;12.82;;;;;;;1.77;100.00;101605.03;4957614;28;20508;-78
2021/01/05 06:05:25;;;;;;;27.27;12.50;;;;;;;1.79;100.00;101600.47;4956446;28;20039;-78
2021/01/05 06:07:51;;;;;;;28.17;13.25;;;;;;;1.79;100.00;101610.22;4956736;29;20084;-78
2021/01/05 06:10:16;;;;;;;25.92;12.15;;;;;;;1.79;100.00;101610.22;4973870;28;20043;-78
2021/01/05 06:12:42;;;;;;;29.98;12.82;;;;;;;1.80;100.00;101603.97;4961726;28;20390;-78
2021/01/05 06:15:08;;;;;;;28.92;12.52;;;;;;;1.83;100.00;101608.25;4960386;28;20074;-78
2021/01/05 06:17:33;;;;;;;23.20;11.00;;;;;;;1.81;100.00;101614.50;4961223;28;20043;-78
2021/01/05 06:19:59;;;;;;;26.38;12.30;;;;;;;1.80;100.00;101612.75;4960933;28;20030;-77
2021/01/05 06:22:24;;;;;;;27.23;12.35;;;;;;;1.79;100.00;101616.34;4961308;28;20039;-78
2021/01/05 06:24:50;;;;;;;29.90;12.88;;;;;;;1.83;100.00;101616.19;4961283;29;20031;-78
2021/01/05 06:27:15;;;;;;;28.35;13.30;;;;;;;1.84;100.00;101620.53;4961290;28;20039;-78
2021/01/05 06:29:41;;;;;;;29.00;12.93;;;;;;;1.80;100.00;101623.34;4960893;28;20027;-78
2021/01/05 06:32:06;;;;;;;30.02;12.73;;;;;;;1.85;100.00;101617.78;4959241;28;20053;-78
2021/01/05 06:34:32;;;;;;;27.27;12.68;;;;;;;1.87;100.00;101628.28;4972496;28;20035;-78
2021/01/05 06:36:57;;;;;;;31.23;13.20;;;;;;;1.86;100.00;101629.22;4971514;28;20031;-78
2021/01/05 06:39:23;;;;;;;32.33;13.23;;;;;;;1.85;100.00;101622.22;4956275;28;20102;-79
2021/01/05 06:41:48;;;;;;;34.72;14.15;;;;;;;1.85;100.00;101628.38;4955945;29;20051;-78
2021/01/05 06:44:14;;;;;;;30.60;12.65;;;;;;;1.84;100.00;101631.09;4956061;28;20035;-79
2021/01/05 06:46:39;;;;;;;30.98;14.02;;;;;;;1.84;100.00;101636.41;4955614;28;20039;-79
2021/01/05 06:49:05;;;;;;;30.73;13.63;;;;;;;1.86;100.00;101632.75;4955160;28;20047;-80
2021/01/05 06:51:30;;;;;;;29.88;13.70;;;;;;;1.83;100.00;101632.06;4955767;29;20452;-78
2021/01/05 06:53:56;;;;;;;26.65;13.07;;;;;;;1.84;100.00;101636.41;4956163;28;20043;-79
2021/01/05 06:56:21;;;;;;;28.60;13.23;;;;;;;1.79;100.00;101631.38;4955565;28;20441;-79
2021/01/05 06:58:46;;;;;;;30.40;13.65;;;;;;;1.83;100.00;101626.78;4956226;28;20039;-81
2021/01/05 07:01:12;;;;;;;27.70;13.23;;;;;;;1.90;100.00;101636.03;4956372;28;20031;-79
2021/01/05 07:03:37;;;;;;;30.60;14.65;;;;;;;1.93;100.00;101634.06;4956066;29;20501;-79
2021/01/05 07:06:03;;;;;;;28.00;12.43;;;;;;;1.94;100.00;101635.75;4955708;28;20031;-80
2021/01/05 07:08:29;;;;;;;28.65;13.27;;;;;;;1.93;100.00;101635.88;4955838;28;20031;-81
2021/01/05 07:10:54;;;;;;;26.75;11.73;;;;;;;1.92;100.00;101634.16;4956432;28;20378;-79
2021/01/05 07:13:20;;;;;;;30.50;13.98;;;;;;;1.96;100.00;101633.03;4957211;28;20039;-80
2021/01/05 07:15:46;;;;;;;47.63;14.18;;;;;;;1.95;100.00;101633.97;4957057;29;20023;-80
2021/01/05 07:18:11;;;;;;;34.28;15.73;;;;;;;1.94;100.00;101630.47;4956008;28;20042;-80
2021/01/05 07:20:37;;;;;;;31.75;13.82;;;;;;;1.93;100.00;101638.50;4945007;28;20028;-79
2021/01/05 07:23:02;;;;;;;33.60;15.15;;;;;;;1.88;100.00;101633.50;4952233;29;20556;-79
2021/01/05 07:25:28;;;;;;;35.25;15.98;;;;;;;1.90;100.00;101633.38;4956374;28;20042;-80
2021/01/05 07:27:53;;;;;;;36.25;14.88;;;;;;;1.92;100.00;101639.47;4955922;28;20036;-81
2021/01/05 07:30:19;;;;;;;40.55;15.63;;;;;;;1.91;100.00;101635.97;4956228;28;20055;-79
2021/01/05 07:32:45;;;;;;;33.58;15.10;;;;;;;1.92;100.00;101628.88;4955516;28;20098;-79
2021/01/05 07:35:12;;;;;;;36.88;15.45;;;;;;;1.92;100.00;101631.53;4956166;28;20028;-79
2021/01/05 07:37:40;;;;;;;35.90;14.60;;;;;;;1.92;100.00;101631.53;4955944;28;20039;-79
2021/01/05 07:40:07;;;;;;;38.70;15.90;;;;;;;1.89;100.00;101634.34;4949242;28;20059;-79
2021/01/05 07:42:33;;;;;;;30.55;13.32;;;;;;;1.92;100.00;101632.38;4955446;29;20456;-80
2021/01/05 07:45:03;;;;;;;33.78;15.27;;;;;;;1.93;100.00;101635.88;4955366;28;20035;-80
2021/01/05 07:47:33;;;;;;;37.97;14.32;;;;;;;1.97;100.00;101640.03;4955014;28;20512;-79
2021/01/05 07:49:59;;;;;;;36.10;14.50;;;;;;;1.91;100.00;101637.72;4955517;28;20046;-79
2021/01/05 07:52:39;;;;;;;36.95;15.88;;;;;;;1.93;100.00;101646.44;4955112;28;20401;-79
2021/01/05 07:55:07;;;;;;;32.25;14.43;;;;;;;1.94;100.00;101646.34;4955378;28;20042;-79
2021/01/05 07:57:33;;;;;;;34.85;15.25;;;;;;;1.96;100.00;101649.78;4954992;28;20039;-80
2021/01/05 07:59:58;;;;;;;33.42;14.65;;;;;;;1.98;100.00;101657.63;4957321;28;20031;-80
2021/01/05 08:02:24;;;;;;;39.65;15.98;;;;;;;1.97;100.00;101650.63;4953256;28;20023;-79
2021/01/05 08:04:49;;;;;;;34.22;15.60;;;;;;;1.92;100.00;101653.53;4957010;29;20031;-80
2021/01/05 08:07:15;;;;;;;36.75;15.82;;;;;;;1.93;100.00;101657.03;4958288;28;20067;-80
2021/01/05 08:09:42;;;;;;;34.42;15.55;;;;;;;1.91;100.00;101656.25;4960202;28;20015;-80
2021/01/05 08:12:15;;;;;;;33.45;14.88;;;;;;;1.91;100.00;101661.53;4958491;29;21433;-80
2021/01/05 08:14:40;;;;;;;33.65;15.00;;;;;;;1.89;100.00;101663.44;4959157;29;20043;-80
2021/01/05 08:17:06;;;;;;;37.75;15.35;;;;;;;1.92;100.00;101664.13;4958189;28;20111;-80
2021/01/05 08:19:32;;;;;;;31.75;14.20;;;;;;;1.91;100.00;101665.06;4959489;28;20031;-80
2021/01/05 08:21:57;;;;;;;32.00;14.77;;;;;;;1.91;100.00;101670.38;4956930;29;20039;-80
2021/01/05 08:24:23;;;;;;;37.35;15.65;;;;;;;1.91;100.00;101677.41;4956947;28;20069;-79
2021/01/05 08:26:48;;;;;;;34.72;15.23;;;;;;;1.94;100.00;101670.16;4972020;28;20058;-80
2021/01/05 08:29:14;;;;;;;33.45;14.77;;;;;;;1.92;100.00;101680.00;4973198;28;20040;-80
2021/01/05 08:31:43;;;;;;;34.97;15.18;;;;;;;1.95;100.00;101671.00;4961673;28;20034;-80
2021/01/05 08:34:10;;;;;;;34.53;14.63;;;;;;;1.95;100.00;101679.81;4956412;28;20090;-79
2021/01/05 08:36:35;;;;;;;33.38;14.40;;;;;;;1.94;100.00;101675.47;4957403;28;20497;-81
2021/01/05 08:39:01;;;;;;;33.85;15.95;;;;;;;1.95;100.00;101676.31;4966014;28;20114;-79
2021/01/05 08:41:27;;;;;;;36.72;16.55;;;;;;;1.95;100.00;101676.31;4958485;29;20039;-79
2021/01/05 08:43:54;;;;;;;34.40;15.55;;;;;;;1.95;100.00;101669.22;4959493;28;20035;-78
2021/01/05 08:46:21;;;;;;;38.15;16.20;;;;;;;1.96;100.00;101675.38;4975257;28;20038;-78
2021/01/05 08:48:47;;;;;;;35.50;14.90;;;;;;;1.93;100.00;101676.41;4941654;29;20043;-79
2021/01/05 08:51:12;;;;;;;36.30;15.05;;;;;;;1.93;100.00;101681.69;4960205;28;20029;-80
2021/01/05 08:53:38;;;;;;;31.63;14.20;;;;;;;1.96;100.00;101680.69;4975486;28;20142;-79
2021/01/05 08:56:04;;;;;;;34.65;15.25;;;;;;;1.94;100.00;101677.25;4959155;28;20046;-79
2021/01/05 08:58:29;;;;;;;33.47;13.95;;;;;;;1.98;100.00;101676.13;4973103;28;20043;-78
2021/01/05 09:00:55;;;;;;;34.72;15.15;;;;;;;1.98;100.00;101678.78;4974262;28;20498;-80
2021/01/05 09:03:20;;;;;;;33.67;15.30;;;;;;;1.97;100.00;101672.66;4957554;28;20039;-80
2021/01/05 09:05:46;;;;;;;33.95;15.27;;;;;;;1.95;100.00;101676.31;4959226;28;20512;-79
2021/01/05 09:08:13;;;;;;;34.60;15.68;;;;;;;1.99;100.00;101672.53;4959561;28;20034;-79
2021/01/05 09:10:38;;;;;;;37.35;14.90;;;;;;;1.99;100.00;101669.91;4961516;28;20509;-80
2021/01/05 09:13:04;;;;;;;38.53;15.68;;;;;;;1.96;100.00;101663.00;4960039;28;20568;-78
2021/01/05 09:15:29;;;;;;;38.70;14.90;;;;;;;2.02;100.00;101672.38;4958634;28;20037;-80
2021/01/05 09:17:55;;;;;;;34.50;15.55;;;;;;;2.02;100.00;101670.56;4956295;29;20082;-80
2021/01/05 09:20:23;;;;;;;37.00;15.23;;;;;;;2.02;100.00;101669.72;4949073;28;20091;-80
2021/01/05 09:22:50;;;;;;;39.83;16.27;;;;;;;2.03;100.00;101677.56;4950898;29;20122;-79
2021/01/05 09:25:16;;;;;;;39.70;15.60;;;;;;;2.03;100.00;101671.41;4956499;28;20039;-78
2021/01/05 09:27:42;;;;;;;36.90;16.23;;;;;;;2.09;100.00;101673.69;4955475;28;20094;-80
2021/01/05 09:30:12;;;;;;;36.03;15.65;;;;;;;2.13;100.00;101685.81;4972726;28;20019;-78
2021/01/05 09:32:37;;;;;;;33.40;15.48;;;;;;;2.15;100.00;101680.41;4957344;28;20050;-80
2021/01/05 09:35:04;;;;;;;37.75;15.82;;;;;;;2.14;100.00;101679.56;4957368;28;20031;-79
2021/01/05 09:37:31;;;;;;;36.85;15.30;;;;;;;2.10;100.00;101685.13;4958189;28;20130;-78
2021/01/05 09:39:56;;;;;;;35.85;15.48;;;;;;;2.16;100.00;101684.75;4950258;28;20040;-79
2021/01/05 09:42:22;;;;;;;36.55;15.55;;;;;;;2.19;100.00;101679.28;4955095;29;20042;-79
2021/01/05 09:44:48;;;;;;;31.10;14.30;;;;;;;2.21;100.00;101691.50;4958978;28;20351;-78
2021/01/05 09:47:19;;;;;;;37.35;15.27;;;;;;;2.21;100.00;101675.63;4957330;28;20343;-79
2021/01/05 09:49:45;;;;;;;34.90;14.13;;;;;;;2.21;100.00;101686.22;4960480;28;20102;-79
2021/01/05 09:52:10;;;;;;;36.60;15.43;;;;;;;2.24;100.00;101686.00;4960237;28;20397;-79
2021/01/05 09:54:36;;;;;;;37.28;15.90;;;;;;;2.23;100.00;101689.63;4959783;28;20034;-79
2021/01/05 09:57:02;;;;;;;39.35;16.50;;;;;;;2.20;100.00;101686.28;4973879;28;20094;-80
2021/01/05 09:59:27;;;;;;;41.50;16.02;;;;;;;2.17;100.00;101682.03;4959507;29;20039;-79
2021/01/05 10:01:55;;;;;;;36.72;15.32;;;;;;;2.19;100.00;101688.09;4957304;28;20032;-78
2021/01/05 10:04:21;;;;;;;42.17;16.30;;;;;;;2.22;100.00;101695.00;4958143;28;20038;-79
2021/01/05 10:06:46;;;;;;;36.42;16.10;;;;;;;2.23;100.00;101688.75;4959214;28;20027;-78
2021/01/05 10:09:12;;;;;;;40.22;16.42;;;;;;;2.23;100.00;101692.25;4960942;29;20374;-79
2021/01/05 10:11:41;;;;;;;39.25;15.50;;;;;;;2.24;100.00;101693.13;4958931;29;20501;-79
2021/01/05 10:14:07;;;;;;;37.83;15.43;;;;;;;2.25;100.00;101689.50;4959309;28;20027;-80
2021/01/05 10:16:33;;;;;;;39.03;16.50;;;;;;;2.26;100.00;101692.09;4958885;28;20035;-79
2021/01/05 10:18:59;;;;;;;41.50;17.40;;;;;;;2.26;100.00;101686.78;4956747;28;20050;-80
2021/01/05 10:21:36;;;;;;;42.10;16.80;;;;;;;2.23;100.00;101681.66;4958030;28;20263;-79
2021/01/05 10:24:03;;;;;;;43.67;16.27;;;;;;;2.23;100.00;101684.31;4957212;28;20039;-80
2021/01/05 10:26:29;;;;;;;39.25;15.52;;;;;;;2.24;100.00;101688.66;4958391;28;20477;-80
2021/01/05 10:28:54;;;;;;;36.55;16.17;;;;;;;2.26;100.00;101697.38;4958186;29;20054;-80
2021/01/05 10:31:20;;;;;;;39.70;16.60;;;;;;;2.28;100.00;101684.91;4959152;28;20059;-80
2021/01/05 10:33:45;;;;;;;43.40;17.30;;;;;;;2.25;100.00;101692.16;4956648;28;20039;-80
2021/01/05 10:36:16;;;;;;;38.33;16.13;;;;;;;2.24;100.00;101693.13;4973090;28;20445;-79
2021/01/05 10:38:44;;;;;;;38.63;15.82;;;;;;;2.28;100.00;101682.25;4973758;28;20039;-79
2021/01/05 10:41:10;;;;;;;36.80;15.75;;;;;;;2.29;100.00;101688.38;4957821;28;20035;-80
2021/01/05 10:43:35;;;;;;;40.38;16.25;;;;;;;2.32;100.00;101686.41;4959306;28;20041;-79
2021/01/05 10:46:01;;;;;;;40.47;16.52;;;;;;;2.28;100.00;101681.41;4954785;28;20099;-79
2021/01/05 10:48:26;;;;;;;43.08;17.30;;;;;;;2.27;100.00;101679.69;4956157;28;20693;-79
2021/01/05 10:50:52;;;;;;;42.33;17.63;;;;;;;2.25;100.00;101682.41;4955826;28;20051;-79
2021/01/05 10:53:17;;;;;;;42.47;17.35;;;;;;;2.29;100.00;101678.66;4955879;28;20529;-77
2021/01/05 10:55:43;;;;;;;38.05;16.10;;;;;;;2.28;100.00;101676.94;4955313;28;20062;-79
2021/01/05 10:58:09;;;;;;;39.60;16.85;;;;;;;2.29;100.00;101683.09;4959699;28;20039;-79
2021/01/05 11:00:34;;;;;;;44.70;17.88;;;;;;;2.28;100.00;101681.41;4960244;28;20042;-79
2021/01/05 11:02:59;;;;;;;37.85;15.88;;;;;;;2.29;100.00;101678.66;4959801;28;20395;-79
2021/01/05 11:05:25;;;;;;;37.88;16.13;;;;;;;2.26;100.00;101680.63;4959100;28;20062;-80
2021/01/05 11:07:52;;;;;;;37.60;15.98;;;;;;;2.23;100.00;101684.31;4958550;28;20058;-80
2021/01/05 11:10:18;;;;;;;35.67;15.40;;;;;;;2.25;100.00;101677.13;4958583;28;20027;-82
2021/01/05 11:12:44;;;;;;;40.08;16.23;;;;;;;2.24;100.00;101679.88;4959899;28;20118;-82
2021/01/05 11:15:13;;;;;;;38.85;16.17;;;;;;;2.24;100.00;101677.22;4957467;28;20119;-80
2021/01/05 11:17:39;;;;;;;39.95;15.85;;;;;;;2.25;100.00;101670.97;4959023;28;20034;-80
2021/01/05 11:20:05;;;;;;;39.08;16.20;;;;;;;2.22;100.00;101676.47;4956834;28;20051;-80